Time;durP1;ratioP1;P1;durP2;ratioP2;P2;SDS_P1;SDS_P2;PMS_P1;PMS_P2;Temp;Humidity;BMP_temperature;BMP_pressure;BME280_temperature;BME280_humidity;BME280_pressure;Samples;Min_cycle;Max_cycle;Signal;HPM_P1;HPM_P2
2022/05/07 00:00:24;;;;;;;7.87;7.07;;;9.60;99.90;;;;;;5136154;27;20199;-86
2022/05/07 00:02:50;;;;;;;9.30;7.23;;;9.60;99.90;;;;;;5136816;27;20290;-85
2022/05/07 00:05:19;;;;;;;8.30;7.47;;;9.60;99.90;;;;;;5136457;27;20199;-85
2022/05/07 00:07:46;;;;;;;8.63;7.13;;;9.60;99.90;;;;;;5136724;27;20191;-85
2022/05/07 00:10:13;;;;;;;8.67;6.67;;;9.60;99.90;;;;;;5136732;27;20616;-86
2022/05/07 00:12:39;;;;;;;8.27;7.23;;;9.50;99.90;;;;;;5136643;27;20195;-86
2022/05/07 00:15:09;;;;;;;11.23;6.63;;;9.50;99.90;;;;;;5136240;27;20642;-86
2022/05/07 00:20:20;;;;;;;8.60;7.63;;;9.30;99.90;;;;;;5136641;27;20194;-86
2022/05/07 00:22:47;;;;;;;8.47;7.47;;;9.30;99.90;;;;;;5136566;27;20194;-86
2022/05/07 00:25:14;;;;;;;9.43;8.20;;;9.30;99.90;;;;;;5136678;27;20195;-86
2022/05/07 00:27:40;;;;;;;9.13;8.23;;;9.20;99.90;;;;;;5140734;27;20226;-85
2022/05/07 00:30:09;;;;;;;10.00;8.20;;;9.10;99.90;;;;;;5136892;27;20256;-86
2022/05/07 00:32:36;;;;;;;8.47;7.57;;;9.00;99.90;;;;;;5136772;27;20203;-86
2022/05/07 00:35:03;;;;;;;7.67;6.93;;;9.00;99.90;;;;;;5117842;27;20649;-86
2022/05/07 00:37:30;;;;;;;9.47;7.37;;;9.00;99.90;;;;;;5139108;27;20752;-86
2022/05/07 00:39:57;;;;;;;7.90;7.10;;;9.00;99.90;;;;;;5137074;27;20194;-86
2022/05/07 00:42:23;;;;;;;9.60;6.80;;;8.90;99.90;;;;;;5136653;27;20199;-86
2022/05/07 00:44:50;;;;;;;9.23;7.37;;;8.80;99.90;;;;;;5144793;27;20228;-86
2022/05/07 00:47:23;;;;;;;10.80;7.60;;;8.90;99.90;;;;;;5136216;27;20222;-86
2022/05/07 00:49:52;;;;;;;10.93;8.80;;;8.80;99.90;;;;;;5136292;27;20201;-86
2022/05/07 00:52:18;;;;;;;17.00;13.40;;;8.70;99.90;;;;;;5136294;27;20191;-87
2022/05/07 00:54:46;;;;;;;16.83;12.63;;;8.60;99.90;;;;;;5135963;27;20596;-86
2022/05/07 00:57:13;;;;;;;16.07;12.17;;;8.50;99.90;;;;;;5141626;27;20203;-86
2022/05/07 00:59:40;;;;;;;15.73;11.50;;;8.40;99.90;;;;;;5145813;27;20224;-88
2022/05/07 01:02:06;;;;;;;12.93;11.03;;;8.40;99.90;;;;;;5147480;27;20198;-87
2022/05/07 01:04:36;;;;;;;10.93;9.80;;;8.30;99.90;;;;;;5126779;27;20205;-86
2022/05/07 01:07:04;;;;;;;10.37;9.23;;;8.20;99.90;;;;;;5146656;27;20362;-86
2022/05/07 01:09:31;;;;;;;13.87;9.47;;;8.10;99.90;;;;;;5130605;27;20195;-86
2022/05/07 01:12:00;;;;;;;9.00;8.10;;;8.00;99.90;;;;;;5147939;27;20195;-86
2022/05/07 01:14:27;;;;;;;10.50;8.57;;;7.90;99.90;;;;;;5148944;27;20198;-85
2022/05/07 01:16:54;;;;;;;8.97;7.83;;;7.80;99.90;;;;;;5149226;27;20199;-86
2022/05/07 01:19:21;;;;;;;16.93;9.53;;;7.60;99.90;;;;;;5150455;27;20195;-86
2022/05/07 01:21:49;;;;;;;10.20;8.20;;;7.60;99.90;;;;;;5147963;27;20252;-86
2022/05/07 01:24:16;;;;;;;10.67;8.53;;;7.50;99.90;;;;;;5154606;27;20190;-86
2022/05/07 01:26:42;;;;;;;10.57;8.90;;;7.40;99.90;;;;;;5156572;27;20231;-87
2022/05/07 01:29:09;;;;;;;13.43;9.87;;;7.30;99.90;;;;;;5159171;27;20217;-85
2022/05/07 01:31:36;;;;;;;10.13;9.00;;;7.30;99.90;;;;;;5160220;27;20224;-86
2022/05/07 01:34:04;;;;;;;12.70;9.13;;;7.40;99.90;;;;;;5160556;27;20271;-86
2022/05/07 01:36:31;;;;;;;13.00;9.60;;;7.30;99.90;;;;;;5160435;27;20211;-87
2022/05/07 01:38:59;;;;;;;10.73;9.73;;;7.10;99.90;;;;;;5160169;27;20289;-86
2022/05/07 01:41:26;;;;;;;11.33;9.90;;;7.10;99.90;;;;;;5140349;27;20196;-85
2022/05/07 01:43:53;;;;;;;11.90;9.70;;;7.10;99.90;;;;;;5157174;27;20197;-86
2022/05/07 01:49:04;;;;;;;9.80;8.80;;;7.00;99.90;;;;;;5153717;27;20193;-88
2022/05/07 01:51:31;;;;;;;10.47;9.00;;;7.00;99.90;;;;;;5150567;27;20600;-89
2022/05/07 01:53:59;;;;;;;13.10;8.87;;;7.20;99.90;;;;;;5145280;27;20206;-88
2022/05/07 01:56:26;;;;;;;14.03;8.53;;;7.10;99.90;;;;;;5135828;27;20251;-88
2022/05/07 01:58:53;;;;;;;12.53;9.13;;;7.20;99.90;;;;;;5135397;27;20202;-87
2022/05/07 02:01:20;;;;;;;12.83;8.70;;;7.00;99.90;;;;;;5135110;27;20195;-88
2022/05/07 02:03:47;;;;;;;10.73;9.63;;;7.00;99.90;;;;;;5137031;27;20252;-88
2022/05/07 02:06:13;;;;;;;12.87;9.70;;;6.90;99.90;;;;;;5136336;27;20214;-87
2022/05/07 02:08:40;;;;;;;13.03;10.77;;;6.80;99.90;;;;;;5136396;27;20263;-88
2022/05/07 02:11:08;;;;;;;11.40;9.50;;;6.70;99.90;;;;;;5135607;27;20252;-89
2022/05/07 02:13:35;;;;;;;14.87;10.23;;;6.60;99.90;;;;;;5134954;27;20191;-89
2022/05/07 02:16:02;;;;;;;11.80;9.67;;;6.70;99.90;;;;;;5135549;27;20248;-89
2022/05/07 02:18:29;;;;;;;10.43;9.20;;;6.70;99.90;;;;;;5142249;27;20224;-88
2022/05/07 02:20:56;;;;;;;10.47;9.37;;;6.80;99.90;;;;;;5139667;27;20195;-89
2022/05/07 02:23:23;;;;;;;11.60;8.73;;;6.90;99.90;;;;;;5138622;27;20566;-88
2022/05/07 02:25:49;;;;;;;11.07;9.53;;;6.80;99.90;;;;;;5140276;27;20232;-90
2022/05/07 02:28:17;;;;;;;12.23;9.47;;;6.80;99.90;;;;;;5138098;28;20219;-89
2022/05/07 02:30:44;;;;;;;14.40;10.00;;;6.60;99.90;;;;;;5138804;28;20220;-88
2022/05/07 02:33:11;;;;;;;12.90;10.73;;;6.50;99.90;;;;;;5138643;28;20235;-89
2022/05/07 02:35:38;;;;;;;12.53;8.97;;;6.40;99.90;;;;;;5135148;28;20554;-88
2022/05/07 02:38:04;;;;;;;10.40;9.23;;;6.30;99.90;;;;;;5134357;28;20258;-88
2022/05/07 02:42:33;;;;;;;13.50;9.87;;;6.40;99.90;;;;;;5135342;28;20220;-88
2022/05/07 02:43:18;;;;;;;10.57;9.47;;;6.50;99.90;;;;;;5134695;28;20659;-88
2022/05/07 02:45:45;;;;;;;11.77;9.27;;;6.60;99.90;;;;;;5134740;28;20199;-89
2022/05/07 02:48:11;;;;;;;11.77;9.97;;;6.50;99.90;;;;;;5134559;28;20276;-89
2022/05/07 02:50:38;;;;;;;13.93;10.10;;;6.40;99.90;;;;;;5134616;28;20248;-89
2022/05/07 02:53:05;;;;;;;11.87;10.57;;;6.20;99.90;;;;;;5134526;28;20228;-88
2022/05/07 02:55:31;;;;;;;11.00;9.83;;;6.20;99.90;;;;;;5134510;28;20198;-87
2022/05/07 02:57:58;;;;;;;13.87;10.13;;;6.30;99.90;;;;;;5134610;28;20202;-86
2022/05/07 03:00:26;;;;;;;12.90;10.17;;;6.30;99.90;;;;;;5136940;28;20220;-86
2022/05/07 03:02:53;;;;;;;12.97;10.23;;;6.40;99.90;;;;;;5137989;28;20203;-85
2022/05/07 03:05:20;;;;;;;10.97;9.80;;;6.30;99.90;;;;;;5135287;28;20604;-86
2022/05/07 03:07:47;;;;;;;11.70;10.50;;;6.10;99.90;;;;;;5134597;28;20627;-86
2022/05/07 03:10:14;;;;;;;11.93;9.90;;;6.00;99.90;;;;;;5134832;28;20199;-85
2022/05/07 03:12:40;;;;;;;12.30;10.53;;;6.10;99.90;;;;;;5135001;28;20191;-87
2022/05/07 03:15:08;;;;;;;11.43;10.23;;;6.00;99.90;;;;;;5134615;28;20225;-86
2022/05/07 03:17:36;;;;;;;11.60;10.40;;;5.90;99.90;;;;;;5136594;28;20223;-88
2022/05/07 03:20:09;;;;;;;12.90;10.47;;;5.90;99.90;;;;;;5139165;28;20245;-83
2022/05/07 03:22:39;;;;;;;15.97;10.57;;;6.00;99.90;;;;;;5142144;28;20285;-86
2022/05/07 03:25:06;;;;;;;13.07;11.03;;;6.00;99.90;;;;;;5138970;28;20523;-86
2022/05/07 03:27:33;;;;;;;14.10;10.60;;;5.90;99.90;;;;;;5137916;28;20234;-86
2022/05/07 03:30:00;;;;;;;11.80;10.60;;;5.80;99.90;;;;;;5137354;28;20203;-88
2022/05/07 03:33:18;;;;;;;11.17;10.00;;;5.70;99.90;;;;;;5142573;28;20606;-83
2022/05/07 03:35:47;;;;;;;14.30;10.27;;;5.50;99.90;;;;;;5158284;27;20291;-84
2022/05/07 03:38:15;;;;;;;11.43;10.10;;;5.50;99.90;;;;;;5372632;22;20239;-81
2022/05/07 03:40:45;;;;;;;12.87;11.43;;;5.40;99.90;;;;;;5083729;28;20203;-83
2022/05/07 03:43:11;;;;;;;15.03;11.30;;;5.40;99.90;;;;;;5096112;28;20197;-83
2022/05/07 03:46:37;;;;;;;13.43;10.90;;;5.40;99.90;;;;;;5100280;28;20181;-82
2022/05/07 03:54:26;;;;;;;12.70;10.73;;;5.60;99.90;;;;;;5120656;28;20257;-83
2022/05/07 03:56:55;;;;;;;12.77;11.27;;;5.70;99.90;;;;;;5113887;28;20253;-83
2022/05/07 03:59:22;;;;;;;13.70;10.97;;;5.60;99.90;;;;;;5108588;28;20227;-83
2022/05/07 04:01:49;;;;;;;13.27;11.87;;;5.40;99.90;;;;;;5106110;28;20227;-85
2022/05/07 04:04:16;;;;;;;15.47;11.03;;;5.40;99.90;;;;;;5116390;28;20226;-83
2022/05/07 04:06:46;;;;;;;16.23;12.00;;;5.40;99.90;;;;;;5117322;28;20200;-83
2022/05/07 04:09:12;;;;;;;15.47;11.87;;;5.40;99.90;;;;;;5110240;28;20197;-83
2022/05/07 04:11:39;;;;;;;17.37;11.43;;;5.30;99.90;;;;;;5114454;28;20202;-83
2022/05/07 04:14:08;;;;;;;14.43;11.70;;;5.30;99.90;;;;;;5114055;28;20651;-83
2022/05/07 04:20:01;;;;;;;13.43;11.00;;;5.60;99.90;;;;;;5105260;28;20181;-83
2022/05/07 04:22:32;;;;;;;15.17;11.93;;;5.80;99.90;;;;;;5113568;28;20206;-85
2022/05/07 04:25:10;;;;;;;13.30;11.57;;;5.70;99.90;;;;;;5103710;28;20209;-85
2022/05/07 04:27:39;;;;;;;12.87;11.10;;;5.60;99.90;;;;;;5102099;28;20216;-86
2022/05/07 04:30:07;;;;;;;13.50;11.83;;;5.70;99.90;;;;;;5101886;28;20249;-86
2022/05/07 04:32:33;;;;;;;16.03;12.40;;;5.70;99.90;;;;;;5103220;28;20302;-84
2022/05/07 04:35:00;;;;;;;12.77;11.30;;;5.70;99.90;;;;;;5105086;28;20222;-87
2022/05/07 04:37:28;;;;;;;12.50;10.83;;;5.70;99.90;;;;;;5101283;28;20551;-86
2022/05/07 04:39:55;;;;;;;13.30;11.40;;;5.80;99.90;;;;;;5097994;28;20208;-88
2022/05/07 04:42:21;;;;;;;12.37;10.83;;;5.90;99.90;;;;;;5096261;28;20196;-87
2022/05/07 04:44:48;;;;;;;13.70;10.97;;;5.90;99.90;;;;;;5096345;28;20200;-87
2022/05/07 04:47:15;;;;;;;15.17;10.73;;;6.10;99.90;;;;;;5096134;28;20246;-88
2022/05/07 04:49:41;;;;;;;11.73;10.50;;;6.20;99.90;;;;;;5095958;28;20200;-88
2022/05/07 04:52:09;;;;;;;11.73;10.20;;;6.40;99.90;;;;;;5096159;28;20691;-88
2022/05/07 04:54:38;;;;;;;11.60;10.40;;;6.40;99.90;;;;;;5095697;28;20207;-88
2022/05/07 04:57:05;;;;;;;10.87;9.77;;;6.50;99.90;;;;;;5098267;28;20295;-88
2022/05/07 04:59:32;;;;;;;12.73;9.80;;;6.60;99.90;;;;;;5107991;28;20184;-88
2022/05/07 05:01:59;;;;;;;12.23;9.80;;;6.60;99.90;;;;;;5120213;28;20207;-87
2022/05/07 05:04:25;;;;;;;10.73;9.67;;;6.70;99.90;;;;;;5118123;28;20176;-89
2022/05/07 05:06:52;;;;;;;11.27;9.23;;;6.90;99.90;;;;;;5119977;28;20184;-88
2022/05/07 05:09:19;;;;;;;9.60;8.57;;;6.90;99.90;;;;;;5119181;28;20210;-87
2022/05/07 05:11:47;;;;;;;10.87;8.43;;;7.00;99.90;;;;;;5119877;28;20188;-86
2022/05/07 05:16:58;;;;;;;12.60;7.87;;;7.10;99.90;;;;;;5097777;28;20226;-87
2022/05/07 05:19:25;;;;;;;10.13;8.30;;;7.30;99.90;;;;;;5096894;28;20200;-87
2022/05/07 05:21:51;;;;;;;11.17;8.07;;;7.30;99.90;;;;;;5076972;28;20243;-87
2022/05/07 05:24:18;;;;;;;8.60;7.70;;;7.40;99.90;;;;;;5094981;28;20340;-87
2022/05/07 05:26:45;;;;;;;8.03;7.20;;;7.50;99.90;;;;;;5094665;28;20200;-87
2022/05/07 05:29:13;;;;;;;10.27;7.10;;;7.60;99.90;;;;;;5079101;28;20228;-87
2022/05/07 05:31:39;;;;;;;7.77;6.93;;;7.70;99.90;;;;;;5095400;28;20648;-86
2022/05/07 05:34:06;;;;;;;10.20;7.30;;;7.90;99.90;;;;;;5094465;28;20261;-86
2022/05/07 05:36:32;;;;;;;8.23;7.33;;;8.00;99.90;;;;;;5094864;28;20220;-86
2022/05/07 05:38:59;;;;;;;11.60;7.17;;;8.10;99.90;;;;;;5094352;28;20222;-86
2022/05/07 05:41:26;;;;;;;8.93;8.03;;;8.30;99.90;;;;;;5094324;28;20506;-86
2022/05/07 05:43:53;;;;;;;8.27;7.37;;;8.40;99.90;;;;;;5076161;28;20203;-86
2022/05/07 05:46:21;;;;;;;8.60;7.57;;;8.50;99.90;;;;;;5094456;28;20200;-87
2022/05/07 05:48:48;;;;;;;10.80;8.30;;;8.60;99.90;;;;;;5093873;28;20216;-86
2022/05/07 05:51:14;;;;;;;12.37;7.90;;;8.70;99.90;;;;;;5093605;28;20228;-87
2022/05/07 05:53:41;;;;;;;10.20;8.10;;;8.80;99.90;;;;;;5093920;28;20201;-86
2022/05/07 05:56:07;;;;;;;8.50;7.60;;;9.00;99.90;;;;;;5096899;28;20204;-86
2022/05/07 05:58:35;;;;;;;11.37;8.20;;;9.10;99.90;;;;;;5093617;28;20208;-86
2022/05/07 06:01:02;;;;;;;9.23;7.10;;;9.20;99.90;;;;;;5098007;28;20196;-86
2022/05/07 06:03:31;;;;;;;8.40;7.30;;;9.30;99.90;;;;;;5093396;28;20204;-86
2022/05/07 06:05:58;;;;;;;7.80;6.70;;;9.50;99.90;;;;;;5093755;28;20196;-86
2022/05/07 06:08:24;;;;;;;8.07;7.27;;;9.60;99.90;;;;;;5093632;28;20224;-86
2022/05/07 06:10:54;;;;;;;8.93;7.27;;;9.70;99.90;;;;;;5093604;28;20204;-86
2022/05/07 06:13:20;;;;;;;8.80;7.30;;;9.90;99.90;;;;;;5093580;28;20193;-86
2022/05/07 06:15:51;;;;;;;8.77;7.83;;;10.00;99.90;;;;;;5093323;28;20254;-84
2022/05/07 06:18:18;;;;;;;8.87;7.93;;;10.20;99.90;;;;;;5075306;28;20192;-85
2022/05/07 06:20:48;;;;;;;9.70;8.70;;;10.30;99.90;;;;;;5096260;28;20200;-85
2022/05/07 06:23:15;;;;;;;7.93;7.13;;;10.40;99.90;;;;;;5094314;28;20207;-84
2022/05/07 06:28:26;;;;;;;8.70;6.90;;;10.50;99.90;;;;;;5095237;28;20633;-85
2022/05/07 06:30:53;;;;;;;8.40;7.50;;;10.70;99.90;;;;;;5101139;28;20193;-85
2022/05/07 06:33:20;;;;;;;8.43;7.17;;;10.80;99.90;;;;;;5102200;28;20533;-84
2022/05/07 06:35:48;;;;;;;11.00;7.23;;;11.00;99.90;;;;;;5099677;28;20283;-85
2022/05/07 06:38:16;;;;;;;8.97;7.47;;;11.20;99.90;;;;;;5101320;28;20226;-84
2022/05/07 06:40:42;;;;;;;8.30;7.00;;;11.40;99.90;;;;;;5097417;28;20193;-84
2022/05/07 06:43:09;;;;;;;7.93;6.53;;;11.50;99.90;;;;;;5095074;28;20594;-84
2022/05/07 06:45:36;;;;;;;7.70;6.50;;;11.70;99.90;;;;;;5093739;28;20196;-84
2022/05/07 06:48:08;;;;;;;7.70;6.90;;;11.90;99.90;;;;;;5093287;28;20273;-84
2022/05/07 06:50:34;;;;;;;7.67;6.90;;;12.10;99.90;;;;;;5092857;28;20505;-83
2022/05/07 06:53:02;;;;;;;6.73;6.13;;;12.30;99.90;;;;;;5092921;28;20196;-83
2022/05/07 06:55:31;;;;;;;6.90;6.20;;;12.40;99.90;;;;;;5092715;28;20204;-83
2022/05/07 06:57:59;;;;;;;7.13;6.43;;;12.50;99.90;;;;;;5092913;28;20204;-83
2022/05/07 07:00:26;;;;;;;9.63;6.50;;;12.60;99.90;;;;;;5092908;28;20196;-83
2022/05/07 07:02:52;;;;;;;7.57;6.83;;;12.80;99.90;;;;;;5092820;28;20656;-83
2022/05/07 07:05:19;;;;;;;10.80;6.73;;;13.10;99.90;;;;;;5092809;28;20196;-83
2022/05/07 07:07:45;;;;;;;9.03;6.60;;;13.40;99.90;;;;;;5092771;28;20700;-83
2022/05/07 07:10:13;;;;;;;7.57;6.13;;;13.70;99.90;;;;;;5092885;28;20257;-83
2022/05/07 07:12:40;;;;;;;8.50;6.37;;;13.90;99.90;;;;;;5096998;28;20197;-82
2022/05/07 07:15:09;;;;;;;7.40;6.00;;;14.00;99.90;;;;;;5096740;28;20226;-83
2022/05/07 07:17:36;;;;;;;6.60;5.90;;;14.10;99.90;;;;;;5096519;28;20200;-83
2022/05/07 07:20:02;;;;;;;7.47;6.60;;;14.30;99.90;;;;;;5096430;28;20242;-82
2022/05/07 07:22:29;;;;;;;7.07;6.37;;;14.50;99.90;;;;;;5096109;28;20204;-82
2022/05/07 07:24:56;;;;;;;7.07;6.47;;;14.80;99.90;;;;;;5096358;28;20254;-82
2022/05/07 07:27:23;;;;;;;7.13;6.43;;;15.00;99.90;;;;;;5096279;28;20192;-82
2022/05/07 07:29:50;;;;;;;9.10;6.60;;;15.10;99.90;;;;;;5096154;28;20224;-83
2022/05/07 07:32:17;;;;;;;8.10;6.80;;;15.20;99.90;;;;;;5096239;28;20201;-83
2022/05/07 07:34:43;;;;;;;13.37;7.37;;;15.00;99.90;;;;;;5096113;28;20192;-83
2022/05/07 07:37:10;;;;;;;9.57;7.97;;;15.20;99.90;;;;;;5095859;28;20684;-82
2022/05/07 07:39:37;;;;;;;8.23;7.40;;;15.50;99.90;;;;;;5096097;28;20196;-82
2022/05/07 07:42:04;;;;;;;8.52;7.82;;;15.70;99.90;;;;;;5096121;28;20196;-82
2022/05/07 07:44:32;;;;;;;10.27;7.90;;;15.90;99.90;;;;;;5095802;28;20192;-81
2022/05/07 07:49:43;;;;;;;8.02;7.32;;;15.70;99.90;;;;;;5095876;28;20306;-84
2022/05/07 07:52:10;;;;;;;12.73;7.72;;;15.80;99.90;;;;;;5095591;28;20228;-82
2022/05/07 07:54:36;;;;;;;9.02;7.78;;;16.20;99.90;;;;;;5095844;28;20196;-84
2022/05/07 07:57:04;;;;;;;9.43;7.40;;;16.20;99.90;;;;;;5095774;28;20196;-82
2022/05/07 07:59:32;;;;;;;8.93;8.02;;;16.20;99.90;;;;;;5095578;28;20250;-83
2022/05/07 08:01:58;;;;;;;8.93;8.15;;;16.70;99.90;;;;;;5095534;28;20667;-82
2022/05/07 08:04:26;;;;;;;8.85;8.07;;;17.10;99.90;;;;;;5095331;28;20655;-83
2022/05/07 08:12:17;;;;;;;11.23;7.65;;;17.90;99.90;;;;;;5095791;28;20199;-84
2022/05/07 08:14:45;;;;;;;9.15;8.30;;;18.20;99.90;;;;;;5095045;28;20249;-83
2022/05/07 08:17:13;;;;;;;9.82;8.50;;;18.20;99.90;;;;;;5095368;28;20201;-82
2022/05/07 08:19:40;;;;;;;8.80;7.90;;;18.20;99.90;;;;;;5095514;28;20192;-82
2022/05/07 08:22:07;;;;;;;9.80;8.07;;;18.20;99.90;;;;;;5095213;28;20196;-82
2022/05/07 08:24:33;;;;;;;8.93;8.00;;;18.30;99.90;;;;;;5095460;28;20200;-82
2022/05/07 08:27:00;;;;;;;10.00;8.15;;;18.50;99.90;;;;;;5095057;28;20606;-81
2022/05/07 08:29:27;;;;;;;10.27;9.27;;;18.70;99.90;;;;;;5095109;28;20274;-82
2022/05/07 08:31:55;;;;;;;9.35;8.45;;;18.90;99.90;;;;;;5094956;28;20207;-81
2022/05/07 08:34:22;;;;;;;9.82;8.82;;;19.00;99.90;;;;;;5094953;28;20246;-82
2022/05/07 08:36:48;;;;;;;11.57;8.80;;;19.10;99.90;;;;;;5094716;28;20200;-81
2022/05/07 08:39:15;;;;;;;10.40;8.73;;;19.30;99.90;;;;;;5094570;28;20192;-82
2022/05/07 08:41:42;;;;;;;10.00;9.10;;;19.40;99.90;;;;;;5094654;28;20266;-82
2022/05/07 08:44:10;;;;;;;10.57;9.68;;;19.40;98.60;;;;;;5094866;28;20200;-81
2022/05/07 08:46:39;;;;;;;11.48;10.35;;;19.60;97.10;;;;;;5094333;28;20662;-82
2022/05/07 08:49:07;;;;;;;13.18;9.43;;;19.10;94.20;;;;;;5094275;28;20220;-81
2022/05/07 08:51:34;;;;;;;11.63;9.60;;;19.30;97.10;;;;;;5094533;28;20232;-82
2022/05/07 08:54:01;;;;;;;12.75;10.02;;;19.60;96.40;;;;;;5094439;28;20228;-81
2022/05/07 08:56:28;;;;;;;10.25;9.38;;;20.00;93.90;;;;;;5094367;28;20192;-82
2022/05/07 08:58:55;;;;;;;12.65;10.25;;;20.20;93.80;;;;;;5094515;28;20200;-82
2022/05/07 09:01:23;;;;;;;10.95;9.40;;;20.20;90.10;;;;;;5094545;28;20203;-82
2022/05/07 09:03:50;;;;;;;10.93;9.82;;;20.70;91.20;;;;;;5094595;28;20199;-81
2022/05/07 09:06:24;;;;;;;10.85;9.75;;;20.90;85.30;;;;;;5094341;28;20200;-82
2022/05/07 09:08:52;;;;;;;12.70;9.60;;;21.20;80.40;;;;;;5094297;28;20314;-82
2022/05/07 09:11:19;;;;;;;10.18;9.27;;;21.30;79.30;;;;;;5094095;28;20200;-82
2022/05/07 09:13:47;;;;;;;9.82;8.93;;;21.40;74.30;;;;;;5094490;28;20227;-82
2022/05/07 09:16:14;;;;;;;9.20;8.20;;;21.60;77.30;;;;;;5094203;28;20197;-81
2022/05/07 09:18:48;;;;;;;10.25;8.40;;;22.10;70.00;;;;;;5094016;28;20196;-82
2022/05/07 09:21:19;;;;;;;13.18;8.38;;;22.60;65.90;;;;;;5093955;28;20196;-81
2022/05/07 09:23:48;;;;;;;8.82;7.97;;;22.90;61.10;;;;;;5094310;28;20204;-81
2022/05/07 09:26:26;;;;;;;9.63;7.97;;;22.40;56.50;;;;;;5094110;28;20192;-81
2022/05/07 09:28:52;;;;;;;10.35;7.97;;;22.40;52.30;;;;;;5093838;28;20224;-83
2022/05/07 09:31:23;;;;;;;11.32;7.68;;;22.40;55.20;;;;;;5093625;28;20559;-82
2022/05/07 09:33:50;;;;;;;9.30;7.45;;;22.90;56.10;;;;;;5092780;28;20197;-82
2022/05/07 09:36:15;;;;;;;8.35;7.63;;;23.10;51.00;;;;;;5093314;28;20193;-83
2022/05/07 09:38:44;;;;;;;7.57;6.80;;;22.90;49.70;;;;;;5093738;28;20197;-82
2022/05/07 09:41:21;;;;;;;10.95;6.80;;;22.50;46.70;;;;;;5093745;28;20197;-82
2022/05/07 09:43:49;;;;;;;9.23;6.57;;;22.30;46.00;;;;;;5093647;28;20196;-83
2022/05/07 09:46:17;;;;;;;7.60;5.90;;;22.30;44.60;;;;;;5093173;28;20663;-82
2022/05/07 09:48:46;;;;;;;7.75;6.40;;;22.60;44.60;;;;;;5093618;28;20220;-82
2022/05/07 09:51:13;;;;;;;9.15;6.25;;;23.20;43.60;;;;;;5093307;28;20228;-82
2022/05/07 09:59:13;;;;;;;8.15;6.10;;;24.20;39.10;;;;;;5093364;28;20199;-81
2022/05/07 10:02:15;;;;;;;10.35;7.20;;;24.10;39.70;;;;;;5093209;28;20192;-82
2022/05/07 10:05:19;;;;;;;8.43;6.97;;;23.50;40.10;;;;;;5093213;28;20272;-81
2022/05/07 10:07:56;;;;;;;9.25;7.07;;;24.10;39.50;;;;;;5058799;28;20196;-80
2022/05/07 10:10:27;;;;;;;7.72;6.90;;;23.70;37.10;;;;;;5093315;28;20228;-82
2022/05/07 10:12:58;;;;;;;8.82;7.07;;;23.60;37.50;;;;;;5093364;28;20262;-81
2022/05/07 10:15:26;;;;;;;8.15;6.90;;;22.70;38.10;;;;;;5093092;28;20223;-81
2022/05/07 10:18:01;;;;;;;7.93;7.22;;;23.10;38.00;;;;;;5093386;28;20223;-81
2022/05/07 10:20:36;;;;;;;7.75;7.05;;;23.60;38.30;;;;;;5093135;28;20287;-82
2022/05/07 10:23:03;;;;;;;7.32;5.90;;;23.70;38.80;;;;;;5093212;28;20195;-82
2022/05/07 10:25:30;;;;;;;7.82;6.03;;;24.60;38.00;;;;;;5093053;28;20200;-82
2022/05/07 10:28:08;;;;;;;8.50;6.55;;;24.50;33.30;;;;;;5092970;28;20204;-80
2022/05/07 10:30:46;;;;;;;9.48;5.57;;;24.30;35.90;;;;;;5093052;28;20230;-82
2022/05/07 10:33:12;;;;;;;7.97;6.35;;;25.70;34.10;;;;;;5093164;28;20192;-80
2022/05/07 10:35:44;;;;;;;6.05;5.55;;;26.10;30.80;;;;;;5092796;28;20277;-81
2022/05/07 10:38:13;;;;;;;7.18;5.80;;;25.50;30.90;;;;;;5092717;28;20560;-83
2022/05/07 10:40:50;;;;;;;8.48;5.70;;;25.60;31.70;;;;;;5093064;28;20200;-83
2022/05/07 10:43:27;;;;;;;6.20;5.60;;;25.10;32.20;;;;;;5092763;28;20192;-83
2022/05/07 10:46:00;;;;;;;6.18;5.57;;;25.60;30.80;;;;;;5096002;28;20725;-82
2022/05/07 10:48:27;;;;;;;5.85;4.90;;;26.70;30.00;;;;;;5097012;28;20200;-82
2022/05/07 10:50:55;;;;;;;6.18;5.05;;;27.60;28.70;;;;;;5096647;28;20236;-81
2022/05/07 10:53:22;;;;;;;5.35;4.88;;;26.30;27.30;;;;;;5096849;28;20231;-82
2022/05/07 10:55:52;;;;;;;7.50;5.03;;;26.00;28.80;;;;;;5097157;28;20197;-83
2022/05/07 10:58:30;;;;;;;5.00;4.57;;;24.90;27.30;;;;;;5097111;28;20196;-83
2022/05/07 11:00:59;;;;;;;8.82;4.60;;;25.00;28.10;;;;;;5096974;28;20200;-82
2022/05/07 11:03:27;;;;;;;6.38;4.05;;;25.40;27.00;;;;;;5096757;28;20197;-81
2022/05/07 11:06:00;;;;;;;6.65;4.43;;;27.00;26.80;;;;;;5096861;28;20253;-81
2022/05/07 11:08:29;;;;;;;5.68;4.30;;;28.80;25.40;;;;;;5096929;28;20206;-81
2022/05/07 11:11:09;;;;;;;4.93;4.18;;;28.80;22.80;;;;;;5096488;28;20256;-82
2022/05/07 11:13:46;;;;;;;4.75;4.28;;;27.90;23.20;;;;;;5096787;28;20196;-81
2022/05/07 11:16:14;;;;;;;5.88;4.03;;;26.70;23.00;;;;;;5098317;28;20234;-81
2022/05/07 11:18:41;;;;;;;5.05;4.55;;;26.30;24.70;;;;;;5097323;28;20203;-82
2022/05/07 11:21:08;;;;;;;6.95;4.80;;;26.20;24.70;;;;;;5096663;28;20197;-82
2022/05/07 11:23:37;;;;;;;6.95;4.45;;;25.40;25.70;;;;;;5096352;28;20291;-82
2022/05/07 11:26:12;;;;;;;6.25;4.93;;;25.50;26.20;;;;;;5096162;28;20197;-83
2022/05/07 11:28:40;;;;;;;5.07;4.57;;;25.20;26.30;;;;;;5096545;28;20256;-82
2022/05/07 11:31:08;;;;;;;6.13;5.00;;;24.90;26.00;;;;;;5096634;28;20258;-81
2022/05/07 11:33:35;;;;;;;7.20;5.50;;;24.70;25.90;;;;;;5096578;28;20287;-81
2022/05/07 11:36:06;;;;;;;5.50;5.00;;;24.70;25.90;;;;;;5097773;28;20196;-82
2022/05/07 11:38:33;;;;;;;6.15;5.20;;;24.90;26.60;;;;;;5098128;28;20197;-82
2022/05/07 11:41:09;;;;;;;7.00;5.03;;;23.60;26.60;;;;;;5097005;28;20655;-82
2022/05/07 11:46:21;;;;;;;6.28;4.90;;;23.80;27.70;;;;;;5095869;28;20322;-82
2022/05/07 11:48:48;;;;;;;5.57;4.63;;;23.80;27.40;;;;;;5095912;28;20196;-82
2022/05/07 11:51:23;;;;;;;6.85;4.57;;;23.80;27.60;;;;;;5095651;28;20254;-82
2022/05/07 11:53:50;;;;;;;8.27;5.93;;;23.80;28.00;;;;;;5096025;28;20195;-82
2022/05/07 11:56:17;;;;;;;7.00;4.90;;;23.70;28.20;;;;;;5094963;28;20204;-82
2022/05/07 11:58:46;;;;;;;5.57;5.07;;;25.10;28.50;;;;;;5095911;28;20192;-83
2022/05/07 12:01:21;;;;;;;7.20;5.28;;;26.30;26.40;;;;;;5095691;28;20200;-81
2022/05/07 12:03:48;;;;;;;6.07;5.40;;;25.70;25.20;;;;;;5095712;28;20195;-81
2022/05/07 12:06:26;;;;;;;8.18;5.38;;;25.70;25.40;;;;;;5095841;28;20200;-81
2022/05/07 12:08:52;;;;;;;4.93;4.47;;;26.90;25.00;;;;;;5095778;28;20192;-83
2022/05/07 12:11:20;;;;;;;4.43;4.03;;;28.30;24.00;;;;;;5095727;28;20629;-81
2022/05/07 12:13:47;;;;;;;5.50;4.57;;;29.80;23.00;;;;;;5095681;28;20200;-81
2022/05/07 12:19:00;;;;;;;4.68;4.25;;;31.60;19.90;;;;;;5095485;28;20191;-81
2022/05/07 12:29:52;;;;;;;7.32;4.10;;;31.60;19.00;;;;;;5095022;28;20357;-83
2022/05/07 12:32:19;;;;;;;5.30;4.15;;;32.40;17.60;;;;;;5095005;28;20547;-81
2022/05/07 12:34:48;;;;;;;5.40;3.80;;;32.80;16.90;;;;;;5101129;28;20231;-82
2022/05/07 12:37:15;;;;;;;7.45;4.25;;;32.80;16.20;;;;;;5101694;28;20191;-80
2022/05/07 12:39:42;;;;;;;6.07;4.28;;;32.20;15.70;;;;;;5099854;28;20196;-82
2022/05/07 12:42:11;;;;;;;7.07;5.07;;;30.40;16.50;;;;;;5077980;28;20196;-82
2022/05/07 12:44:38;;;;;;;4.72;4.25;;;29.20;17.90;;;;;;5095472;28;20195;-82
2022/05/07 12:47:06;;;;;;;5.60;4.15;;;30.60;17.20;;;;;;5095408;28;20224;-81
2022/05/07 12:49:32;;;;;;;6.40;4.28;;;32.40;16.80;;;;;;5095158;28;20222;-82
2022/05/07 12:52:02;;;;;;;4.47;4.07;;;33.40;16.00;;;;;;5094876;28;20281;-81
2022/05/07 12:54:29;;;;;;;4.82;4.40;;;34.50;15.20;;;;;;5095028;28;20663;-82
2022/05/07 12:56:55;;;;;;;6.88;4.00;;;34.60;13.60;;;;;;5094828;28;20195;-82
2022/05/07 12:59:22;;;;;;;3.85;3.55;;;32.90;14.30;;;;;;5094803;28;20192;-82
2022/05/07 13:01:49;;;;;;;5.07;3.95;;;32.30;14.80;;;;;;5094553;28;20333;-82
2022/05/07 13:04:15;;;;;;;5.65;3.40;;;30.80;15.30;;;;;;5094262;28;20609;-81
2022/05/07 13:06:42;;;;;;;4.95;3.65;;;29.60;15.70;;;;;;5094697;28;20258;-83
2022/05/07 13:09:11;;;;;;;6.57;4.55;;;28.90;16.70;;;;;;5094434;28;20222;-83
2022/05/07 13:11:37;;;;;;;8.70;4.18;;;28.50;17.30;;;;;;5094477;28;20231;-82
2022/05/07 13:14:04;;;;;;;6.20;3.72;;;28.90;17.10;;;;;;5094191;28;20200;-81
2022/05/07 13:16:31;;;;;;;4.90;3.65;;;29.80;16.40;;;;;;5094276;28;20201;-82
2022/05/07 13:18:58;;;;;;;4.80;3.90;;;30.20;16.50;;;;;;5094093;28;20533;-84
2022/05/07 13:21:24;;;;;;;5.45;4.30;;;29.90;15.90;;;;;;5094169;28;20195;-79
2022/05/07 13:23:51;;;;;;;5.13;3.78;;;29.30;16.50;;;;;;5093904;28;20268;-81
2022/05/07 13:26:19;;;;;;;4.13;3.67;;;29.00;16.90;;;;;;5094033;28;20253;-80
2022/05/07 13:28:45;;;;;;;6.63;3.80;;;29.20;16.00;;;;;;5093978;28;20230;-82
2022/05/07 13:31:13;;;;;;;6.82;3.70;;;30.50;16.00;;;;;;5093869;28;20228;-82
2022/05/07 13:33:39;;;;;;;4.22;3.83;;;29.80;15.50;;;;;;5094122;28;20204;-82
2022/05/07 13:36:06;;;;;;;6.40;4.20;;;31.10;14.60;;;;;;5094003;28;20218;-82
2022/05/07 13:38:33;;;;;;;4.90;3.80;;;31.00;15.10;;;;;;5093861;28;20192;-82